createdAt,value
2018-07-09T00:00:10.800Z,76
2018-07-09T00:01:13.109Z,77
2018-07-09T00:02:15.469Z,76
2018-07-09T00:03:17.789Z,76
2018-07-09T00:04:19.823Z,77
2018-07-09T00:05:21.860Z,77
2018-07-09T00:06:23.906Z,77
2018-07-09T00:07:25.944Z,77
2018-07-09T00:08:27.989Z,77
2018-07-09T00:09:30.019Z,78
2018-07-09T00:10:32.451Z,77
2018-07-09T00:11:34.498Z,77
2018-07-09T00:12:36.535Z,77
2018-07-09T00:13:38.863Z,78
2018-07-09T00:14:40.909Z,78
2018-07-09T00:15:43.339Z,78
2018-07-09T00:16:45.381Z,78
2018-07-09T00:17:47.415Z,78
2018-07-09T00:18:49.460Z,78
2018-07-09T00:19:51.503Z,78
2018-07-09T00:20:53.528Z,79
2018-07-09T00:21:55.569Z,78
2018-07-09T00:22:57.606Z,78
2018-07-09T00:23:59.643Z,78
2018-07-09T00:25:02.118Z,79
2018-07-09T00:26:04.717Z,79
2018-07-09T00:27:06.759Z,79
2018-07-09T00:28:08.802Z,79
2018-07-09T00:29:10.844Z,79
2018-07-09T00:30:12.876Z,79
2018-07-09T00:31:14.919Z,79
2018-07-09T00:32:16.973Z,79
2018-07-09T00:33:19.376Z,79
2018-07-09T00:34:21.415Z,79
2018-07-09T00:35:23.469Z,80
2018-07-09T00:36:25.885Z,80
2018-07-09T00:37:27.922Z,80
2018-07-09T00:38:29.967Z,80
2018-07-09T00:39:32.004Z,80
2018-07-09T00:40:34.048Z,80
2018-07-09T00:41:36.082Z,80
2018-07-09T00:42:38.419Z,81
2018-07-09T00:43:40.459Z,81
2018-07-09T00:44:42.487Z,81
2018-07-09T00:45:45.203Z,81
2018-07-09T00:46:47.243Z,81
2018-07-09T00:47:49.273Z,81
2018-07-09T00:48:51.313Z,81
2018-07-09T00:49:53.345Z,82
2018-07-09T00:50:55.407Z,81
2018-07-09T00:51:57.425Z,81
2018-07-09T00:52:59.459Z,81
2018-07-09T00:54:01.485Z,81
2018-07-09T00:55:03.812Z,81
2018-07-09T00:56:05.854Z,81
2018-07-09T00:57:07.898Z,81
2018-07-09T00:58:09.988Z,81
2018-07-09T00:59:12.034Z,81
2018-07-09T01:00:14.063Z,82
2018-07-09T01:01:16.085Z,82
2018-07-09T01:02:18.129Z,82
2018-07-09T01:03:20.180Z,82
2018-07-09T01:04:22.217Z,82
2018-07-09T01:05:24.637Z,82
2018-07-09T01:06:27.066Z,82
2018-07-09T01:07:29.102Z,82
2018-07-09T01:08:31.134Z,83
2018-07-09T01:09:33.170Z,83
2018-07-09T01:10:35.211Z,83
2018-07-09T01:11:37.244Z,83
2018-07-09T01:12:39.287Z,82
2018-07-09T01:13:41.319Z,82
2018-07-09T01:14:43.358Z,83
2018-07-09T01:15:45.798Z,83
2018-07-09T01:16:47.824Z,83
2018-07-09T01:17:49.855Z,83
2018-07-09T01:18:51.894Z,83
2018-07-09T01:19:54.211Z,83
2018-07-09T01:20:56.266Z,83
2018-07-09T01:21:58.576Z,83
2018-07-09T01:23:00.913Z,84
2018-07-09T01:24:03.223Z,84
2018-07-09T01:25:05.545Z,84
2018-07-09T01:26:07.587Z,84
2018-07-09T01:27:10.202Z,84
2018-07-09T01:28:12.527Z,84
2018-07-09T01:29:14.558Z,84
2018-07-09T01:30:16.595Z,84
2018-07-09T01:31:18.632Z,84
2018-07-09T01:32:20.675Z,84
2018-07-09T01:33:22.716Z,85
2018-07-09T01:34:24.740Z,84
2018-07-09T01:35:27.073Z,84
2018-07-09T01:36:29.788Z,85
2018-07-09T01:37:31.827Z,85
2018-07-09T01:38:33.861Z,85
2018-07-09T01:39:35.894Z,85
2018-07-09T01:40:38.242Z,85
2018-07-09T01:41:40.959Z,85
2018-07-09T01:42:42.995Z,85
2018-07-09T01:43:45.044Z,85
2018-07-09T01:44:47.077Z,85
2018-07-09T01:45:49.104Z,85
2018-07-09T01:46:51.142Z,85
2018-07-09T01:47:53.173Z,86
2018-07-09T01:48:55.208Z,85
2018-07-09T01:49:57.241Z,86
2018-07-09T01:50:59.675Z,86
2018-07-09T01:52:01.711Z,86
2018-07-09T01:53:03.753Z,86
2018-07-09T01:54:06.069Z,86
2018-07-09T01:55:08.108Z,86
2018-07-09T01:56:10.131Z,86
2018-07-09T01:57:12.179Z,86
2018-07-09T01:58:14.217Z,86
2018-07-09T01:59:16.255Z,86
2018-07-09T02:00:18.290Z,86
2018-07-09T02:01:20.618Z,86
2018-07-09T02:02:22.652Z,86
2018-07-09T02:03:25.005Z,86
2018-07-09T02:04:27.314Z,86
2018-07-09T02:05:29.366Z,86
2018-07-09T02:06:31.681Z,86
2018-07-09T02:07:34.088Z,86
2018-07-09T02:08:36.128Z,86
2018-07-09T02:09:38.158Z,86
2018-07-09T02:10:40.199Z,86
2018-07-09T02:11:42.527Z,86
2018-07-09T02:12:44.556Z,86
2018-07-09T02:13:46.601Z,86
2018-07-09T02:14:48.625Z,86
2018-07-09T02:15:50.669Z,86
2018-07-09T02:16:52.703Z,87
2018-07-09T02:17:54.744Z,86
2018-07-09T02:18:56.778Z,87
2018-07-09T02:19:58.814Z,87
2018-07-09T02:21:01.161Z,87
2018-07-09T02:22:03.207Z,87
2018-07-09T02:23:05.230Z,87
2018-07-09T02:24:07.279Z,87
2018-07-09T02:25:09.313Z,87
2018-07-09T02:26:11.344Z,86
2018-07-09T02:27:13.387Z,87
2018-07-09T02:28:15.426Z,87
2018-07-09T02:29:17.854Z,87
2018-07-09T02:30:19.893Z,87
2018-07-09T02:31:21.938Z,87
2018-07-09T02:32:24.268Z,87
2018-07-09T02:33:26.672Z,87
2018-07-09T02:34:28.713Z,87
2018-07-09T02:35:30.751Z,87
2018-07-09T02:36:32.789Z,87
2018-07-09T02:37:34.823Z,87
2018-07-09T02:38:37.144Z,87
2018-07-09T02:39:39.967Z,87
2018-07-09T02:40:42.596Z,87
2018-07-09T02:41:45.293Z,87
2018-07-09T02:42:48.390Z,87
2018-07-09T02:43:50.425Z,87
2018-07-09T02:44:53.027Z,88
2018-07-09T02:45:55.654Z,87
2018-07-09T02:46:58.376Z,88
2018-07-09T02:48:00.399Z,88
2018-07-09T02:49:02.885Z,87
2018-07-09T02:50:04.877Z,88
2018-07-09T02:51:06.907Z,87
2018-07-09T02:52:09.532Z,88
2018-07-09T02:53:11.569Z,88
2018-07-09T02:54:13.610Z,88
2018-07-09T02:55:15.643Z,88
2018-07-09T02:56:18.065Z,88
2018-07-09T02:57:20.401Z,88
2018-07-09T02:58:23.025Z,88
2018-07-09T02:59:25.069Z,88
2018-07-09T03:00:27.394Z,88
2018-07-09T03:01:30.042Z,88
2018-07-09T03:02:32.072Z,88
2018-07-09T03:03:34.108Z,88
2018-07-09T03:04:36.149Z,88
2018-07-09T03:05:38.873Z,88
2018-07-09T03:06:40.880Z,88
2018-07-09T03:07:42.917Z,88
2018-07-09T03:08:44.955Z,88
2018-07-09T03:09:47.275Z,87
2018-07-09T03:10:49.298Z,87
2018-07-09T03:11:51.334Z,88
2018-07-09T03:12:54.047Z,88
2018-07-09T03:13:56.065Z,88
2018-07-09T03:14:58.108Z,88
2018-07-09T03:16:00.151Z,88
2018-07-09T03:17:02.185Z,88
2018-07-09T03:18:04.890Z,88
2018-07-09T03:19:06.989Z,88
2018-07-09T03:20:09.240Z,88
2018-07-09T03:21:11.282Z,88
2018-07-09T03:22:13.324Z,88
2018-07-09T03:23:15.644Z,88
2018-07-09T03:24:17.962Z,88
2018-07-09T03:25:20.389Z,88
2018-07-09T03:26:22.428Z,88
2018-07-09T03:27:24.465Z,88
2018-07-09T03:28:26.490Z,88
2018-07-09T03:29:28.568Z,88
2018-07-09T03:30:30.580Z,88
2018-07-09T03:31:32.902Z,88
2018-07-09T03:32:34.936Z,88
2018-07-09T03:33:36.972Z,88
2018-07-09T03:34:39.573Z,88
2018-07-09T03:35:41.881Z,88
2018-07-09T03:36:44.213Z,88
2018-07-09T03:37:46.254Z,88
2018-07-09T03:38:48.290Z,88
2018-07-09T03:39:50.327Z,88
2018-07-09T03:40:52.366Z,88
2018-07-09T03:41:54.689Z,88
2018-07-09T03:42:56.991Z,88
2018-07-09T03:43:59.023Z,88
2018-07-09T03:45:01.058Z,88
2018-07-09T03:46:03.384Z,88
2018-07-09T03:47:05.408Z,88
2018-07-09T03:48:07.444Z,88
2018-07-09T03:49:09.480Z,88
2018-07-09T03:50:11.508Z,88
2018-07-09T03:51:13.820Z,88
2018-07-09T03:52:15.853Z,88
2018-07-09T03:53:18.280Z,88
2018-07-09T03:54:20.300Z,88
2018-07-09T03:55:22.652Z,88
2018-07-09T03:56:24.702Z,88
2018-07-09T03:57:26.725Z,87
2018-07-09T03:58:28.760Z,87
2018-07-09T03:59:30.788Z,87
2018-07-09T04:00:32.827Z,87
2018-07-09T04:01:34.868Z,87
2018-07-09T04:02:36.905Z,87
2018-07-09T04:03:38.933Z,87
2018-07-09T04:04:40.967Z,87
2018-07-09T04:05:43.001Z,87
2018-07-09T04:06:45.046Z,87
2018-07-09T04:07:47.109Z,87
2018-07-09T04:08:49.158Z,87
2018-07-09T04:09:51.186Z,87
2018-07-09T04:10:53.225Z,86
2018-07-09T04:11:55.260Z,87
2018-07-09T04:12:57.303Z,87
2018-07-09T04:13:59.344Z,87
2018-07-09T04:15:01.386Z,87
2018-07-09T04:16:03.416Z,86
2018-07-09T04:17:05.459Z,86
2018-07-09T04:18:07.491Z,86
2018-07-09T04:19:09.913Z,86
2018-07-09T04:20:11.947Z,86
2018-07-09T04:21:13.986Z,86
2018-07-09T04:22:16.020Z,86
2018-07-09T04:23:18.061Z,86
2018-07-09T04:24:20.477Z,86
2018-07-09T04:25:22.519Z,86
2018-07-09T04:26:24.855Z,86
2018-07-09T04:27:26.900Z,86
2018-07-09T04:28:29.213Z,86
2018-07-09T04:29:31.638Z,86
2018-07-09T04:30:33.674Z,86
2018-07-09T04:31:35.709Z,86
2018-07-09T04:32:37.744Z,86
2018-07-09T04:33:40.090Z,86
2018-07-09T04:34:42.127Z,86
2018-07-09T04:35:44.166Z,86
2018-07-09T04:36:46.480Z,86
2018-07-09T04:37:48.556Z,86
2018-07-09T04:38:50.555Z,86
2018-07-09T04:39:52.592Z,86
2018-07-09T04:40:54.625Z,87
2018-07-09T04:41:56.651Z,87
2018-07-09T04:42:59.081Z,86
2018-07-09T04:44:01.113Z,86
2018-07-09T04:45:03.535Z,87
2018-07-09T04:46:05.570Z,87
2018-07-09T04:47:07.607Z,87
2018-07-09T04:48:09.943Z,87
2018-07-09T04:49:11.968Z,87
2018-07-09T04:50:14.009Z,87
2018-07-09T04:51:16.060Z,87
2018-07-09T04:52:18.371Z,87
2018-07-09T04:53:20.406Z,87
2018-07-09T04:54:22.442Z,88
2018-07-09T04:55:24.470Z,87
2018-07-09T04:56:26.507Z,87
2018-07-09T04:57:28.544Z,87
2018-07-09T04:58:30.579Z,87
2018-07-09T04:59:32.898Z,87
2018-07-09T05:00:34.922Z,87
2018-07-09T05:01:37.345Z,87
2018-07-09T05:02:39.377Z,87
2018-07-09T05:03:41.405Z,87
2018-07-09T05:04:43.445Z,87
2018-07-09T05:05:46.057Z,87
2018-07-09T05:06:48.071Z,87
2018-07-09T05:07:50.104Z,87
2018-07-09T05:08:52.138Z,87
2018-07-09T05:09:54.483Z,87
2018-07-09T05:10:56.506Z,87
2018-07-09T05:11:58.933Z,87
2018-07-09T05:13:01.022Z,87
2018-07-09T05:14:03.636Z,87
2018-07-09T05:15:05.683Z,87
2018-07-09T05:16:08.107Z,87
2018-07-09T05:17:10.132Z,87
2018-07-09T05:18:12.175Z,87
2018-07-09T05:19:14.223Z,87
2018-07-09T05:20:16.547Z,87
2018-07-09T05:21:19.161Z,87
2018-07-09T05:22:21.195Z,86
2018-07-09T05:23:23.631Z,87
2018-07-09T05:24:25.659Z,87
2018-07-09T05:25:27.979Z,87
2018-07-09T05:26:30.031Z,87
2018-07-09T05:27:32.356Z,87
2018-07-09T05:28:34.391Z,87
2018-07-09T05:29:36.418Z,87
2018-07-09T05:30:38.453Z,87
2018-07-09T05:31:40.493Z,87
2018-07-09T05:32:42.520Z,87
2018-07-09T05:33:44.568Z,87
2018-07-09T05:34:46.988Z,87
2018-07-09T05:35:49.301Z,87
2018-07-09T05:36:51.342Z,87
2018-07-09T05:37:53.372Z,88
2018-07-09T05:38:55.409Z,87
2018-07-09T05:39:57.479Z,87
2018-07-09T05:41:00.108Z,87
2018-07-09T05:42:02.541Z,87
2018-07-09T05:43:04.565Z,87
2018-07-09T05:44:06.883Z,87
2018-07-09T05:45:08.926Z,87
2018-07-09T05:46:10.959Z,87
2018-07-09T05:47:13.296Z,87
2018-07-09T05:48:15.327Z,87
2018-07-09T05:49:17.366Z,87
2018-07-09T05:50:19.412Z,87
2018-07-09T05:51:21.447Z,86
2018-07-09T05:52:23.476Z,86
2018-07-09T05:53:25.546Z,86
2018-07-09T05:54:27.839Z,86
2018-07-09T05:55:29.872Z,86
2018-07-09T05:56:32.199Z,86
2018-07-09T05:57:34.614Z,86
2018-07-09T05:58:36.697Z,86
2018-07-09T05:59:38.737Z,86
2018-07-09T06:00:41.156Z,86
2018-07-09T06:01:43.188Z,86
2018-07-09T06:02:45.613Z,86
2018-07-09T06:03:47.651Z,86
2018-07-09T06:04:49.690Z,85
2018-07-09T06:05:51.717Z,86
2018-07-09T06:06:54.078Z,85
2018-07-09T06:07:56.109Z,85
2018-07-09T06:08:58.146Z,85
2018-07-09T06:10:00.182Z,85
2018-07-09T06:11:02.236Z,85
2018-07-09T06:12:04.593Z,85
2018-07-09T06:13:06.930Z,85
2018-07-09T06:14:08.971Z,85
2018-07-09T06:15:11.007Z,85
2018-07-09T06:16:13.028Z,85
2018-07-09T06:17:15.456Z,85
2018-07-09T06:18:17.504Z,85
2018-07-09T06:19:19.574Z,85
2018-07-09T06:20:21.580Z,85
2018-07-09T06:21:23.624Z,85
2018-07-09T06:22:25.656Z,85
2018-07-09T06:23:27.702Z,85
2018-07-09T06:24:29.733Z,85
2018-07-09T06:25:32.709Z,84
2018-07-09T06:26:34.693Z,84
2018-07-09T06:27:36.721Z,84
2018-07-09T06:28:38.756Z,84
2018-07-09T06:29:41.081Z,84
2018-07-09T06:30:43.119Z,84
2018-07-09T06:31:45.559Z,84
2018-07-09T06:32:47.595Z,84
2018-07-09T06:33:49.638Z,84
2018-07-09T06:34:51.673Z,84
2018-07-09T06:35:53.712Z,84
2018-07-09T06:36:55.745Z,84
2018-07-09T06:37:57.770Z,84
2018-07-09T06:39:00.110Z,84
2018-07-09T06:40:02.548Z,84
2018-07-09T06:41:04.893Z,84
2018-07-09T06:42:06.934Z,83
2018-07-09T06:43:08.966Z,83
2018-07-09T06:44:11.580Z,83
2018-07-09T06:45:13.898Z,83
2018-07-09T06:46:15.935Z,83
2018-07-09T06:47:17.989Z,83
2018-07-09T06:48:20.060Z,83
2018-07-09T06:49:22.855Z,83
2018-07-09T06:50:25.283Z,82
2018-07-09T06:51:27.306Z,82
2018-07-09T06:52:29.347Z,82
2018-07-09T06:53:32.054Z,82
2018-07-09T06:54:34.093Z,82
2018-07-09T06:55:36.139Z,82
2018-07-09T06:56:38.453Z,81
2018-07-09T06:57:40.499Z,81
2018-07-09T06:58:42.839Z,81
2018-07-09T06:59:44.872Z,82
2018-07-09T07:00:46.913Z,81
2018-07-09T07:01:49.341Z,81
2018-07-09T07:02:51.379Z,80
2018-07-09T07:03:53.411Z,80
2018-07-09T07:04:55.449Z,80
2018-07-09T07:05:57.503Z,80
2018-07-09T07:06:59.547Z,80
2018-07-09T07:08:01.578Z,80
2018-07-09T07:09:03.680Z,79
2018-07-09T07:10:05.668Z,80
2018-07-09T07:11:08.300Z,80
2018-07-09T07:12:10.334Z,79
2018-07-09T07:13:12.366Z,80
2018-07-09T07:14:14.430Z,80
2018-07-09T07:15:16.459Z,79
2018-07-09T07:16:18.496Z,79
2018-07-09T07:17:20.531Z,79
2018-07-09T07:18:22.570Z,79
2018-07-09T07:19:24.608Z,79
2018-07-09T07:20:26.937Z,78
2018-07-09T07:21:28.976Z,79
2018-07-09T07:22:31.029Z,78
2018-07-09T07:23:33.068Z,78
2018-07-09T07:24:35.096Z,78
2018-07-09T07:25:37.704Z,78
2018-07-09T07:26:39.755Z,78
2018-07-09T07:27:41.791Z,78
2018-07-09T07:28:44.122Z,78
2018-07-09T07:29:46.167Z,78
2018-07-09T07:30:48.207Z,78
2018-07-09T07:31:50.244Z,78
2018-07-09T07:32:52.314Z,77
2018-07-09T07:33:54.316Z,78
2018-07-09T07:34:56.696Z,78
2018-07-09T07:35:58.726Z,78
2018-07-09T07:37:00.772Z,78
2018-07-09T07:38:03.091Z,78
2018-07-09T07:39:05.134Z,78
2018-07-09T07:40:07.479Z,78
2018-07-09T07:41:09.517Z,78
2018-07-09T07:42:11.559Z,77
2018-07-09T07:43:13.596Z,78
2018-07-09T07:44:15.624Z,78
2018-07-09T07:45:17.675Z,77
2018-07-09T07:46:19.709Z,78
2018-07-09T07:47:21.755Z,77
2018-07-09T07:48:23.782Z,77
2018-07-09T07:49:26.202Z,77
2018-07-09T07:50:28.554Z,77
2018-07-09T07:51:31.066Z,77
2018-07-09T07:52:33.493Z,76
2018-07-09T07:53:35.815Z,76
2018-07-09T07:54:37.857Z,76
2018-07-09T07:55:39.891Z,76
2018-07-09T07:56:41.925Z,76
2018-07-09T07:57:43.976Z,76
2018-07-09T07:58:46.022Z,75
2018-07-09T07:59:48.071Z,76
2018-07-09T08:00:50.395Z,76
2018-07-09T08:01:52.733Z,76
2018-07-09T08:02:55.168Z,76
2018-07-09T08:03:57.584Z,76
2018-07-09T08:04:59.904Z,77
2018-07-09T08:06:02.337Z,76
2018-07-09T08:07:04.381Z,75
2018-07-09T08:08:06.418Z,75
2018-07-09T08:09:08.461Z,75
2018-07-09T08:10:10.908Z,75
2018-07-09T08:11:13.234Z,76
2018-07-09T08:13:27.170Z,75
2018-07-09T08:14:04.063Z,75
2018-07-09T08:15:06.097Z,74
2018-07-09T08:16:08.432Z,75
2018-07-09T08:17:10.473Z,74
2018-07-09T08:18:12.527Z,75
2018-07-09T08:19:14.562Z,74
2018-07-09T08:20:16.595Z,75
2018-07-09T08:21:18.939Z,75
2018-07-09T08:22:21.011Z,74
2018-07-09T08:23:23.028Z,73
2018-07-09T08:24:25.449Z,74
2018-07-09T08:25:28.035Z,74
2018-07-09T08:26:29.956Z,74
2018-07-09T08:27:32.000Z,74
2018-07-09T08:28:34.044Z,74
2018-07-09T08:29:36.074Z,74
2018-07-09T08:30:38.123Z,73
2018-07-09T08:31:40.453Z,73
2018-07-09T08:32:42.490Z,73
2018-07-09T08:33:44.533Z,73
2018-07-09T08:34:46.875Z,74
2018-07-09T08:35:49.207Z,74
2018-07-09T08:36:51.239Z,74
2018-07-09T08:37:53.334Z,73
2018-07-09T08:38:55.344Z,73
2018-07-09T08:39:57.671Z,73
2018-07-09T08:40:59.719Z,73
2018-07-09T08:42:02.047Z,73
2018-07-09T08:43:04.083Z,73
2018-07-09T08:44:06.393Z,73
2018-07-09T08:45:08.736Z,72
2018-07-09T08:46:11.093Z,73
2018-07-09T08:47:13.133Z,72
2018-07-09T08:48:15.186Z,73
2018-07-09T08:49:17.610Z,73
2018-07-09T08:50:20.039Z,73
2018-07-09T08:51:22.075Z,71
2018-07-09T08:52:24.397Z,71
2018-07-09T08:53:26.449Z,69
2018-07-09T08:54:28.494Z,69
2018-07-09T08:55:30.822Z,70
2018-07-09T08:56:32.856Z,69
2018-07-09T08:57:34.895Z,69
2018-07-09T08:58:37.613Z,69
2018-07-09T08:59:39.654Z,67
2018-07-09T09:00:41.698Z,67
2018-07-09T09:01:43.731Z,67
2018-07-09T09:02:45.786Z,68
2018-07-09T09:03:48.169Z,67
2018-07-09T09:04:50.151Z,66
2018-07-09T09:05:52.197Z,66
2018-07-09T09:06:54.239Z,65
2018-07-09T09:07:56.285Z,63
2018-07-09T09:08:58.326Z,62
2018-07-09T09:10:00.809Z,62
2018-07-09T09:11:02.829Z,63
2018-07-09T09:12:05.150Z,63
2018-07-09T09:13:07.197Z,61
2018-07-09T09:14:09.239Z,63
2018-07-09T09:15:11.280Z,62
2018-07-09T09:16:13.321Z,60
2018-07-09T09:17:15.646Z,59
2018-07-09T09:18:17.981Z,61
2018-07-09T09:19:20.041Z,60
2018-07-09T09:20:22.073Z,59
2018-07-09T09:21:24.113Z,57
2018-07-09T09:22:26.162Z,58
2018-07-09T09:23:28.206Z,59
2018-07-09T09:24:30.245Z,59
2018-07-09T09:25:32.354Z,56
2018-07-09T09:26:34.347Z,54
2018-07-09T09:27:36.392Z,55
2018-07-09T09:28:38.436Z,53
2018-07-09T09:29:40.477Z,55
2018-07-09T09:30:42.521Z,54
2018-07-09T09:31:44.566Z,54
2018-07-09T09:32:46.605Z,55
2018-07-09T09:33:48.660Z,57
2018-07-09T09:34:50.697Z,56
2018-07-09T09:35:52.750Z,54
2018-07-09T09:36:55.077Z,54
2018-07-09T09:37:57.129Z,55
2018-07-09T09:38:59.175Z,53
2018-07-09T09:40:01.235Z,53
2018-07-09T09:41:03.278Z,54
2018-07-09T09:42:05.615Z,54
2018-07-09T09:43:07.718Z,54
2018-07-09T09:44:10.080Z,56
2018-07-09T09:45:12.141Z,54
2018-07-09T09:46:14.479Z,55
2018-07-09T09:47:16.528Z,55
2018-07-09T09:48:18.874Z,55
2018-07-09T09:49:21.234Z,56
2018-07-09T09:50:23.548Z,55
2018-07-09T09:51:26.176Z,55
2018-07-09T09:52:28.233Z,55
2018-07-09T09:53:30.579Z,57
2018-07-09T09:54:32.624Z,55
2018-07-09T09:55:34.677Z,55
2018-07-09T09:56:36.723Z,54
2018-07-09T09:57:39.370Z,52
2018-07-09T09:58:41.415Z,50
2018-07-09T09:59:43.457Z,51
2018-07-09T10:00:45.786Z,52
2018-07-09T10:01:47.826Z,52
2018-07-09T10:02:49.867Z,48
2018-07-09T10:03:51.911Z,49
2018-07-09T10:04:54.273Z,48
2018-07-09T10:05:56.326Z,48
2018-07-09T10:06:58.363Z,49
2018-07-09T10:08:00.701Z,49
2018-07-09T10:09:02.742Z,49
2018-07-09T10:10:04.788Z,50
2018-07-09T10:11:06.839Z,50
2018-07-09T10:12:08.892Z,49
2018-07-09T10:13:10.949Z,51
2018-07-09T10:14:12.992Z,50
2018-07-09T10:15:15.038Z,50
2018-07-09T10:16:17.101Z,50
2018-07-09T10:17:19.151Z,48
2018-07-09T10:18:21.196Z,48
2018-07-09T10:19:23.540Z,47
2018-07-09T10:20:25.579Z,45
2018-07-09T10:21:27.631Z,46
2018-07-09T10:22:29.683Z,44
2018-07-09T10:23:31.780Z,45
2018-07-09T10:24:33.782Z,44
2018-07-09T10:25:35.850Z,45
2018-07-09T10:26:37.879Z,45
2018-07-09T10:27:39.933Z,47
2018-07-09T10:28:41.979Z,47
2018-07-09T10:29:44.023Z,48
2018-07-09T10:30:46.069Z,46
2018-07-09T10:31:48.116Z,48
2018-07-09T10:32:50.173Z,46
2018-07-09T10:33:52.502Z,46
2018-07-09T10:34:54.542Z,46
2018-07-09T10:35:56.596Z,46
2018-07-09T10:36:58.646Z,46
2018-07-09T10:38:00.699Z,45
2018-07-09T10:39:02.752Z,45
2018-07-09T10:40:04.809Z,45
2018-07-09T10:41:07.153Z,45
2018-07-09T10:42:09.202Z,43
2018-07-09T10:43:11.255Z,45
2018-07-09T10:44:13.309Z,45
2018-07-09T10:45:15.744Z,45
2018-07-09T10:46:18.178Z,47
2018-07-09T10:47:20.230Z,48
2018-07-09T10:48:22.661Z,47
2018-07-09T10:49:24.705Z,47
2018-07-09T10:50:26.756Z,45
2018-07-09T10:51:28.808Z,46
2018-07-09T10:52:31.141Z,46
2018-07-09T10:53:33.199Z,46
2018-07-09T10:54:35.245Z,46
2018-07-09T10:55:37.299Z,47
2018-07-09T10:56:39.348Z,47
2018-07-09T10:57:41.396Z,47
2018-07-09T10:58:43.431Z,47
2018-07-09T10:59:45.491Z,47
2018-07-09T11:00:47.612Z,46
2018-07-09T11:01:49.603Z,46
2018-07-09T11:02:51.938Z,46
2018-07-09T11:03:54.300Z,45
2018-07-09T11:04:56.630Z,45
2018-07-09T11:05:59.061Z,46
2018-07-09T11:07:01.116Z,46
2018-07-09T11:08:03.180Z,46
2018-07-09T11:09:05.508Z,47
2018-07-09T11:10:07.551Z,47
2018-07-09T11:11:09.603Z,47
2018-07-09T11:12:11.933Z,48
2018-07-09T11:13:14.273Z,48
2018-07-09T11:14:16.317Z,49
2018-07-09T11:15:18.382Z,49
2018-07-09T11:16:20.910Z,50
2018-07-09T11:17:23.645Z,50
2018-07-09T11:18:25.697Z,50
2018-07-09T11:19:27.737Z,50
2018-07-09T11:20:29.794Z,51
2018-07-09T11:21:31.859Z,51
2018-07-09T11:22:33.886Z,51
2018-07-09T11:23:35.927Z,49
2018-07-09T11:24:37.977Z,49
2018-07-09T11:25:40.236Z,49
2018-07-09T11:26:42.474Z,49
2018-07-09T11:27:44.530Z,48
2018-07-09T11:28:46.572Z,47
2018-07-09T11:29:48.616Z,48
2018-07-09T11:30:50.667Z,47
2018-07-09T11:31:53.310Z,48
2018-07-09T11:32:55.371Z,49
2018-07-09T11:33:57.808Z,48
2018-07-09T11:34:59.983Z,48
2018-07-09T11:36:02.085Z,49
2018-07-09T11:37:04.088Z,49
2018-07-09T11:38:06.140Z,49
2018-07-09T11:39:08.184Z,48
2018-07-09T11:40:10.237Z,48
2018-07-09T11:41:12.282Z,48
2018-07-09T11:42:14.412Z,47
2018-07-09T11:43:16.381Z,48
2018-07-09T11:44:18.736Z,48
2018-07-09T11:45:20.783Z,47
2018-07-09T11:46:22.829Z,48
2018-07-09T11:47:24.876Z,47
2018-07-09T11:48:26.928Z,46
2018-07-09T11:49:28.970Z,47
2018-07-09T11:50:31.688Z,44
2018-07-09T11:51:33.741Z,43
2018-07-09T11:52:35.790Z,45
2018-07-09T11:53:37.832Z,45
2018-07-09T11:54:39.882Z,43
2018-07-09T11:55:42.239Z,44
2018-07-09T11:56:44.286Z,42
2018-07-09T11:57:49.411Z,43
2018-07-09T11:58:52.624Z,43
2018-07-09T11:59:54.673Z,43
2018-07-09T12:00:56.727Z,44
2018-07-09T12:02:03.694Z,44
2018-07-09T12:03:07.588Z,44
2018-07-09T12:04:09.637Z,45
2018-07-09T12:05:11.677Z,45
2018-07-09T12:06:13.727Z,45
2018-07-09T12:07:16.160Z,45
2018-07-09T12:08:18.217Z,46
2018-07-09T12:09:20.274Z,45
2018-07-09T12:10:22.334Z,45
2018-07-09T12:11:24.726Z,46
2018-07-09T12:12:27.056Z,46
2018-07-09T12:13:29.121Z,46
2018-07-09T12:14:31.160Z,45
2018-07-09T12:15:33.202Z,45
2018-07-09T12:16:35.547Z,45
2018-07-09T12:17:38.262Z,45
2018-07-09T12:18:40.311Z,46
2018-07-09T12:19:42.662Z,46
2018-07-09T12:20:44.712Z,45
2018-07-09T12:21:47.050Z,46
2018-07-09T12:22:49.094Z,46
2018-07-09T12:23:51.140Z,47
2018-07-09T12:24:53.485Z,46
2018-07-09T12:25:55.532Z,47
2018-07-09T12:26:57.596Z,47
2018-07-09T12:27:59.648Z,48
2018-07-09T12:29:01.761Z,47
2018-07-09T12:30:04.161Z,46
2018-07-09T12:31:06.511Z,46
2018-07-09T12:32:08.854Z,47
2018-07-09T12:33:10.908Z,47
2018-07-09T12:34:13.355Z,47
2018-07-09T12:35:15.695Z,45
2018-07-09T12:36:17.818Z,46
2018-07-09T12:37:19.785Z,46
2018-07-09T12:38:21.841Z,45
2018-07-09T12:39:23.878Z,45
2018-07-09T12:40:25.930Z,44
2018-07-09T12:41:27.977Z,45
2018-07-09T12:42:30.311Z,45
2018-07-09T12:43:32.364Z,45
2018-07-09T12:44:34.801Z,46
2018-07-09T12:45:37.140Z,47
2018-07-09T12:46:39.474Z,47
2018-07-09T12:47:41.506Z,48
2018-07-09T12:48:43.565Z,48
2018-07-09T12:49:46.026Z,48
2018-07-09T12:50:48.396Z,48
2018-07-09T12:51:50.443Z,49
2018-07-09T12:52:52.474Z,49
2018-07-09T12:53:54.529Z,49
2018-07-09T12:54:57.083Z,48
2018-07-09T12:55:59.714Z,48
2018-07-09T12:57:06.558Z,49
2018-07-09T12:58:10.536Z,50
2018-07-09T12:59:14.337Z,50
2018-07-09T13:00:16.658Z,50
2018-07-09T13:01:19.512Z,51
2018-07-09T13:02:22.679Z,50
2018-07-09T13:03:24.988Z,50
2018-07-09T13:04:27.341Z,51
2018-07-09T13:05:30.457Z,51
2018-07-09T13:06:34.532Z,51
2018-07-09T13:07:36.944Z,51
2018-07-09T13:08:39.006Z,51
2018-07-09T13:09:41.125Z,52
2018-07-09T13:10:43.193Z,52
2018-07-09T13:11:45.616Z,52
2018-07-09T13:12:49.946Z,52
2018-07-09T13:13:55.958Z,52
2018-07-09T13:15:01.025Z,53
2018-07-09T13:16:04.011Z,52
2018-07-09T13:17:10.432Z,52
2018-07-09T13:18:16.518Z,52
2018-07-09T13:19:25.464Z,52
2018-07-09T13:20:33.417Z,51
2018-07-09T13:21:41.561Z,52
2018-07-09T13:22:50.008Z,50
2018-07-09T13:23:56.843Z,50
2018-07-09T13:25:03.693Z,51
2018-07-09T13:26:09.152Z,50
2018-07-09T13:27:12.561Z,50
2018-07-09T13:28:20.836Z,50
2018-07-09T13:29:27.690Z,50
2018-07-09T13:30:35.331Z,49
2018-07-09T13:31:43.912Z,49
2018-07-09T13:32:51.782Z,49
2018-07-09T13:33:57.667Z,48
2018-07-09T13:35:05.468Z,47
2018-07-09T13:36:15.352Z,48
2018-07-09T13:37:23.209Z,48
2018-07-09T13:38:30.697Z,48
2018-07-09T13:39:39.268Z,47
2018-07-09T13:40:46.124Z,48
2018-07-09T13:41:53.925Z,48
2018-07-09T13:43:02.619Z,47
2018-07-09T13:44:12.728Z,47
2018-07-09T13:45:20.767Z,46
2018-07-09T13:46:27.878Z,47
2018-07-09T13:47:36.191Z,47
2018-07-09T13:48:43.963Z,47
2018-07-09T13:49:49.860Z,48
2018-07-09T13:50:56.853Z,48
2018-07-09T13:52:01.261Z,48
2018-07-09T13:53:08.180Z,47
2018-07-09T13:54:16.649Z,48
2018-07-09T13:55:21.480Z,48
2018-07-09T13:56:25.250Z,47
2018-07-09T13:57:28.991Z,48
2018-07-09T13:58:32.966Z,48
2018-07-09T13:59:37.483Z,48
2018-07-09T14:00:43.285Z,48
2018-07-09T14:01:50.303Z,47
2018-07-09T14:02:56.417Z,48
2018-07-09T14:04:03.970Z,48
2018-07-09T14:05:08.563Z,48
2018-07-09T14:06:13.399Z,47
2018-07-09T14:07:15.624Z,47
2018-07-09T14:08:19.034Z,47
2018-07-09T14:09:23.003Z,47
2018-07-09T14:10:30.548Z,47
2018-07-09T14:11:36.519Z,48
2018-07-09T14:12:42.018Z,47
2018-07-09T14:13:46.526Z,48
2018-07-09T14:14:49.253Z,47
2018-07-09T14:15:54.042Z,48
2018-07-09T14:16:58.692Z,47
2018-07-09T14:18:04.889Z,47
2018-07-09T14:19:09.631Z,47
2018-07-09T14:20:15.308Z,47
2018-07-09T14:21:20.073Z,49
2018-07-09T14:22:24.592Z,48
2018-07-09T14:23:31.068Z,49
2018-07-09T14:24:38.576Z,49
2018-07-09T14:25:46.374Z,50
2018-07-09T14:26:50.230Z,49
2018-07-09T14:27:54.766Z,49
2018-07-09T14:29:00.539Z,50
2018-07-09T14:30:07.233Z,49
2018-07-09T14:31:12.422Z,50
2018-07-09T14:32:17.714Z,49
2018-07-09T14:33:23.570Z,49
2018-07-09T14:34:28.765Z,49
2018-07-09T14:35:35.306Z,50
2018-07-09T14:36:38.756Z,49
2018-07-09T14:37:43.990Z,50
2018-07-09T14:38:47.486Z,49
2018-07-09T14:39:52.211Z,49
2018-07-09T14:40:57.780Z,50
2018-07-09T14:42:03.254Z,49
2018-07-09T14:43:10.252Z,49
2018-07-09T14:44:17.377Z,49
2018-07-09T14:45:23.797Z,49
2018-07-09T14:46:29.585Z,49
2018-07-09T14:47:37.028Z,50
2018-07-09T14:48:44.513Z,49
2018-07-09T14:49:51.090Z,50
2018-07-09T14:50:54.228Z,50
2018-07-09T14:51:58.588Z,50
2018-07-09T14:53:02.644Z,50